createdAt,value
2022-08-17T00:03:42.622Z,42.01
2022-08-17T00:13:49.191Z,44.11
2022-08-17T00:23:51.315Z,45.33
2022-08-17T00:33:53.224Z,45.45
2022-08-17T00:44:01.898Z,45.41
2022-08-17T00:54:14.249Z,45.91
2022-08-17T01:04:18.108Z,47.98
2022-08-17T01:14:21.598Z,49.31
2022-08-17T01:24:23.646Z,47.92
2022-08-17T01:34:36.820Z,48.72
2022-08-17T01:44:45.115Z,49.16
2022-08-17T01:54:49.161Z,48.81
2022-08-17T02:04:51.735Z,47.00
2022-08-17T02:14:53.262Z,47.64
2022-08-17T02:25:00.815Z,48.23
2022-08-17T02:35:05.459Z,48.54
2022-08-17T02:45:11.179Z,48.79
2022-08-17T02:55:25.078Z,49.62
2022-08-17T03:05:29.505Z,49.47
2022-08-17T03:15:33.634Z,49.18
2022-08-17T03:25:38.716Z,49.18
2022-08-17T03:35:41.383Z,49.88
2022-08-17T03:46:02.027Z,49.45
2022-08-17T03:56:24.339Z,49.31
2022-08-17T04:06:25.816Z,49.17
2022-08-17T04:16:27.488Z,49.91
2022-08-17T04:26:52.276Z,50.15
2022-08-17T04:36:52.583Z,48.35
2022-08-17T04:46:54.448Z,47.09
2022-08-17T04:56:55.975Z,46.50
2022-08-17T05:06:57.616Z,46.52
2022-08-17T05:16:59.138Z,46.21
2022-08-17T05:27:06.314Z,45.62
2022-08-17T05:37:08.246Z,44.56
2022-08-17T05:47:09.753Z,43.21
2022-08-17T05:57:26.857Z,41.09
2022-08-17T06:07:47.874Z,39.04
2022-08-17T06:17:54.630Z,37.17
2022-08-17T06:28:02.739Z,36.28
2022-08-17T06:38:37.119Z,25.84
2022-08-17T06:48:47.175Z,16.34
2022-08-17T06:58:50.117Z,11.85
2022-08-17T07:09:02.753Z,11.47
2022-08-17T07:19:07.318Z,9.58
2022-08-17T07:29:17.772Z,8.63
2022-08-17T07:39:27.939Z,7.77
2022-08-17T07:49:37.055Z,7.07
2022-08-17T08:00:03.283Z,6.84
2022-08-17T08:10:29.200Z,6.21
2022-08-17T08:20:52.042Z,6.72
2022-08-17T08:31:42.094Z,6.06
2022-08-17T08:41:57.022Z,5.73
2022-08-17T08:52:01.303Z,6.38
2022-08-17T09:02:35.117Z,6.68
2022-08-17T09:12:44.592Z,6.56
2022-08-17T09:22:53.130Z,6.17
2022-08-17T09:32:59.849Z,6.87
2022-08-17T09:43:17.334Z,8.82
2022-08-17T09:53:19.255Z,7.57
2022-08-17T10:03:35.398Z,6.81
2022-08-17T10:13:53.509Z,8.29
2022-08-17T10:24:24.405Z,7.38
2022-08-17T10:34:44.321Z,9.00
2022-08-17T10:44:56.267Z,8.06
2022-08-17T10:54:58.390Z,7.66
2022-08-17T11:05:00.412Z,9.13
2022-08-17T11:15:33.430Z,12.89
2022-08-17T11:25:47.219Z,14.44
2022-08-17T11:35:53.622Z,15.34
2022-08-17T11:46:02.340Z,14.58
2022-08-17T11:56:09.517Z,15.71
2022-08-17T12:06:33.367Z,16.84
2022-08-17T12:16:35.145Z,17.08
2022-08-17T12:26:37.714Z,16.22
2022-08-17T12:36:40.220Z,15.86
2022-08-17T12:47:21.951Z,15.63
2022-08-17T12:57:26.750Z,14.31
2022-08-17T13:07:42.480Z,14.13
2022-08-17T13:17:57.311Z,15.50
2022-08-17T13:28:00.449Z,14.80
2022-08-17T13:38:14.847Z,14.07
2022-08-17T13:48:16.659Z,13.83
2022-08-17T13:58:40.644Z,14.09
2022-08-17T14:08:42.193Z,14.95
2022-08-17T14:18:56.166Z,16.27
2022-08-17T14:28:58.770Z,14.71
2022-08-17T14:39:02.048Z,14.35
2022-08-17T14:49:03.967Z,13.97
2022-08-17T14:59:06.035Z,14.13
2022-08-17T15:09:07.531Z,14.26
2022-08-17T15:19:09.034Z,13.97
2022-08-17T15:29:10.803Z,14.73
2022-08-17T15:39:12.337Z,14.11
2022-08-17T15:49:13.801Z,14.41
2022-08-17T15:59:15.373Z,15.63
2022-08-17T16:09:16.844Z,16.64
2022-08-17T16:19:18.692Z,17.08
2022-08-17T16:29:21.357Z,17.75
2022-08-17T16:39:28.852Z,18.31
2022-08-17T16:49:37.249Z,18.38
2022-08-17T16:59:43.605Z,19.12
2022-08-17T17:09:48.940Z,18.79
2022-08-17T17:20:00.709Z,19.39
2022-08-17T17:30:20.693Z,19.94
2022-08-17T17:40:37.472Z,20.54
2022-08-17T17:51:04.016Z,21.32
2022-08-17T18:01:22.051Z,21.86
2022-08-17T18:11:51.376Z,22.14
2022-08-17T18:22:02.818Z,22.89
2022-08-17T18:32:32.333Z,23.13
2022-08-17T18:42:33.964Z,24.36
2022-08-17T18:52:35.429Z,26.24
2022-08-17T19:02:56.088Z,26.86
2022-08-17T19:13:12.445Z,28.05
2022-08-17T19:23:23.724Z,27.99
2022-08-17T19:33:26.124Z,28.38
2022-08-17T19:43:50.563Z,28.38
2022-08-17T19:54:09.155Z,28.97
2022-08-17T20:04:32.469Z,28.97
2022-08-17T20:14:58.372Z,29.13
2022-08-17T20:25:18.454Z,29.07
2022-08-17T20:35:53.076Z,29.38
2022-08-17T20:46:06.674Z,29.15
2022-08-17T20:56:08.180Z,29.42
2022-08-17T21:06:17.502Z,30.15
2022-08-17T21:16:41.191Z,29.78
2022-08-17T21:27:00.916Z,29.76
2022-08-17T21:37:23.688Z,29.30
2022-08-17T21:47:28.009Z,29.33
2022-08-17T21:57:30.788Z,29.34
2022-08-17T22:07:39.435Z,28.70
2022-08-17T22:17:46.589Z,29.99
2022-08-17T22:27:54.935Z,32.54
2022-08-17T22:37:57.378Z,37.44
2022-08-17T22:48:02.007Z,37.69
2022-08-17T22:58:33.383Z,40.37
2022-08-17T23:08:44.008Z,44.03
2022-08-17T23:18:46.226Z,47.03
2022-08-17T23:28:47.803Z,52.46
2022-08-17T23:38:49.360Z,56.40
2022-08-17T23:48:53.428Z,58.29
2022-08-17T23:58:55.848Z,59.30
